Terminal Aerodrome Forecast
Issued by NWS Wilmington, OH

Current Version | Previous Version | Text Only | Print | Product List | Glossary Off
Versions: 1 2 3 4 5 6 7 8 9 10 11 12 13 14 15 16 17 18 19

000
FTUS41 KILN 282347
TAFDAY
TAF
KDAY 282347Z 2900/2924 07006KT 3SM -TSRA OVC050CB
      TEMPO 2900/2902 2SM TSRA OVC025CB
     FM290200 07006KT P6SM -SHRA SCT015 OVC035
     FM290500 09006KT 5SM -SHRA VCTS OVC015CB
     FM290900 22009KT 5SM -SHRA BKN015
     FM291500 22006KT P6SM VCSH SCT025 OVC060=

USA.gov is the U.S. government's official web portal to all federal, state and local government web resources and services.